createdAt,value
2018-07-07T00:00:41.099Z,13.00
2018-07-07T00:03:10.498Z,12.30
2018-07-07T00:05:42.083Z,12.77
2018-07-07T00:08:11.776Z,12.10
2018-07-07T00:10:41.552Z,12.20
2018-07-07T00:13:12.367Z,12.53
2018-07-07T00:15:41.773Z,12.43
2018-07-07T00:18:11.504Z,13.60
2018-07-07T00:20:40.917Z,11.60
2018-07-07T00:23:10.263Z,12.27
2018-07-07T00:25:40.328Z,11.70
2018-07-07T00:28:09.751Z,11.43
2018-07-07T00:30:39.789Z,12.20
2018-07-07T00:33:09.231Z,11.87
2018-07-07T00:35:38.837Z,11.63
2018-07-07T00:38:09.082Z,12.70
2018-07-07T00:40:38.472Z,11.63
2018-07-07T00:43:07.912Z,11.60
2018-07-07T00:45:37.394Z,11.63
2018-07-07T00:48:07.249Z,11.67
2018-07-07T00:50:36.673Z,12.67
2018-07-07T00:53:06.372Z,12.63
2018-07-07T00:55:35.797Z,11.37
2018-07-07T00:58:05.292Z,11.90
2018-07-07T01:00:47.324Z,12.70
2018-07-07T01:03:16.738Z,11.90
2018-07-07T01:05:47.711Z,12.70
2018-07-07T01:08:18.084Z,13.00
2018-07-07T01:10:47.512Z,14.00
2018-07-07T01:13:16.904Z,12.73
2018-07-07T01:15:46.673Z,14.17
2018-07-07T01:18:16.077Z,13.10
2018-07-07T01:20:45.499Z,13.40
2018-07-07T01:23:15.314Z,13.27
2018-07-07T01:25:45.081Z,14.20
2018-07-07T01:28:14.624Z,14.80
2018-07-07T01:30:47.849Z,15.23
2018-07-07T01:33:17.928Z,14.80
2018-07-07T01:35:50.200Z,14.03
2018-07-07T01:38:22.024Z,13.70
2018-07-07T01:40:57.403Z,15.63
2018-07-07T01:43:26.868Z,12.80
2018-07-07T01:45:57.002Z,14.30
2018-07-07T01:48:29.175Z,13.77
2018-07-07T01:50:59.949Z,13.50
2018-07-07T01:53:32.173Z,14.10
2018-07-07T01:56:01.761Z,12.77
2018-07-07T01:58:34.202Z,14.40
2018-07-07T02:01:06.638Z,14.40
2018-07-07T02:03:37.105Z,13.17
2018-07-07T02:06:08.126Z,12.00
2018-07-07T02:08:37.443Z,12.90
2018-07-07T02:11:08.856Z,12.97
2018-07-07T02:13:39.428Z,12.87
2018-07-07T02:16:09.881Z,13.30
2018-07-07T02:18:40.681Z,12.20
2018-07-07T02:21:17.388Z,12.70
2018-07-07T02:23:53.309Z,12.50
2018-07-07T02:26:27.276Z,12.50
2018-07-07T02:28:57.026Z,13.43
2018-07-07T02:31:28.383Z,13.40
2018-07-07T02:33:59.160Z,13.90
2018-07-07T02:36:30.102Z,13.57
2018-07-07T02:39:00.631Z,13.13
2018-07-07T02:41:30.444Z,12.40
2018-07-07T02:43:59.808Z,12.70
2018-07-07T02:46:29.277Z,12.20
2018-07-07T02:48:58.705Z,12.57
2018-07-07T02:51:28.182Z,11.27
2018-07-07T02:53:57.816Z,11.90
2018-07-07T02:56:27.350Z,11.60
2018-07-07T02:58:56.777Z,10.60
2018-07-07T03:01:26.620Z,11.40
2018-07-07T03:03:57.219Z,10.30
2018-07-07T03:06:26.629Z,11.57
2018-07-07T03:08:56.106Z,10.83
2018-07-07T03:11:25.507Z,10.80
2018-07-07T03:13:55.424Z,10.83
2018-07-07T03:16:25.381Z,11.17
2018-07-07T03:18:54.769Z,10.87
2018-07-07T03:21:24.170Z,10.53
2018-07-07T03:23:53.593Z,11.43
2018-07-07T03:26:22.972Z,11.20
2018-07-07T03:28:52.661Z,10.47
2018-07-07T03:31:22.060Z,10.30
2018-07-07T03:33:51.441Z,10.20
2018-07-07T03:36:20.921Z,11.33
2018-07-07T03:38:50.365Z,10.43
2018-07-07T03:41:19.865Z,10.70
2018-07-07T03:43:49.352Z,10.00
2018-07-07T03:46:18.717Z,9.77
2018-07-07T03:48:48.131Z,10.00
2018-07-07T03:51:17.525Z,10.13
2018-07-07T03:53:47.624Z,9.30
2018-07-07T03:56:17.502Z,10.20
2018-07-07T03:58:47.157Z,9.67
2018-07-07T04:01:17.080Z,10.23
2018-07-07T04:03:46.444Z,9.30
2018-07-07T04:06:15.889Z,11.00
2018-07-07T04:08:45.575Z,9.40
2018-07-07T04:11:15.025Z,9.33
2018-07-07T04:13:44.514Z,11.30
2018-07-07T04:16:13.896Z,9.07
2018-07-07T04:18:43.464Z,10.43
2018-07-07T04:21:12.916Z,8.70
2018-07-07T04:23:42.325Z,9.27
2018-07-07T04:26:12.558Z,8.50
2018-07-07T04:28:42.076Z,10.27
2018-07-07T04:31:11.456Z,8.60
2018-07-07T04:33:40.917Z,10.00
2018-07-07T04:36:10.921Z,8.87
2018-07-07T04:38:40.285Z,9.10
2018-07-07T04:41:09.625Z,8.60
2018-07-07T04:43:39.078Z,9.83
2018-07-07T04:46:08.516Z,11.83
2018-07-07T04:48:37.932Z,10.40
2018-07-07T04:51:07.343Z,10.03
2018-07-07T04:53:37.176Z,10.67
2018-07-07T04:56:07.248Z,10.20
2018-07-07T04:58:38.009Z,9.73
2018-07-07T05:01:07.396Z,8.47
2018-07-07T05:03:36.803Z,11.07
2018-07-07T05:06:06.344Z,10.43
2018-07-07T05:08:35.747Z,9.87
2018-07-07T05:11:05.645Z,10.27
2018-07-07T05:13:35.071Z,10.40
2018-07-07T05:16:04.533Z,10.10
2018-07-07T05:18:33.952Z,10.73
2018-07-07T05:21:03.426Z,10.10
2018-07-07T05:23:32.823Z,9.70
2018-07-07T05:26:03.048Z,9.47
2018-07-07T05:28:32.936Z,8.83
2018-07-07T05:31:02.329Z,9.97
2018-07-07T05:33:31.707Z,8.53
2018-07-07T05:36:01.947Z,10.37
2018-07-07T05:38:31.867Z,9.77
2018-07-07T05:41:01.369Z,10.80
2018-07-07T05:43:30.723Z,9.87
2018-07-07T05:46:00.630Z,10.13
2018-07-07T05:48:30.025Z,10.23
2018-07-07T05:50:59.686Z,9.30
2018-07-07T05:53:29.212Z,10.53
2018-07-07T05:55:58.628Z,9.73
2018-07-07T05:58:28.016Z,9.90
2018-07-07T06:00:57.436Z,9.33
2018-07-07T06:03:26.799Z,10.30
2018-07-07T06:05:56.215Z,11.60
2018-07-07T06:08:26.224Z,9.90
2018-07-07T06:10:55.616Z,10.43
2018-07-07T06:13:25.223Z,10.20
2018-07-07T06:15:54.644Z,7.83
2018-07-07T06:18:25.084Z,9.10
2018-07-07T06:20:54.884Z,8.47
2018-07-07T06:23:24.706Z,8.03
2018-07-07T06:25:54.127Z,8.23
2018-07-07T06:28:23.589Z,9.50
2018-07-07T06:30:52.955Z,8.73
2018-07-07T06:33:22.408Z,8.80
2018-07-07T06:35:54.364Z,8.97
2018-07-07T06:38:23.755Z,9.07
2018-07-07T06:40:53.123Z,7.70
2018-07-07T06:43:22.648Z,7.70
2018-07-07T06:45:52.058Z,7.83
2018-07-07T06:48:21.823Z,8.30
2018-07-07T06:50:51.318Z,8.47
2018-07-07T06:53:20.715Z,7.30
2018-07-07T06:55:51.081Z,7.80
2018-07-07T06:58:22.153Z,8.80
2018-07-07T07:00:51.916Z,7.77
2018-07-07T07:03:21.346Z,7.60
2018-07-07T07:05:50.729Z,7.70
2018-07-07T07:08:21.844Z,8.57
2018-07-07T07:10:51.249Z,7.00
2018-07-07T07:13:21.992Z,6.80
2018-07-07T07:15:51.628Z,7.70
2018-07-07T07:18:21.787Z,8.60
2018-07-07T07:20:51.810Z,8.37
2018-07-07T07:23:22.005Z,10.10
2018-07-07T07:25:51.444Z,9.10
2018-07-07T07:28:21.098Z,7.90
2018-07-07T07:30:50.507Z,8.40
2018-07-07T07:33:20.204Z,8.57
2018-07-07T07:35:49.652Z,8.13
2018-07-07T07:38:19.020Z,7.60
2018-07-07T07:40:48.470Z,8.23
2018-07-07T07:43:17.972Z,6.90
2018-07-07T07:45:47.819Z,7.90
2018-07-07T07:48:17.184Z,7.27
2018-07-07T07:50:46.543Z,7.30
2018-07-07T07:53:15.933Z,6.97
2018-07-07T07:55:45.297Z,7.00
2018-07-07T07:58:14.654Z,6.33
2018-07-07T08:00:44.053Z,6.93
2018-07-07T08:03:13.576Z,7.00
2018-07-07T08:05:42.977Z,6.97
2018-07-07T08:08:12.404Z,6.83
2018-07-07T08:10:42.931Z,6.57
2018-07-07T08:13:12.340Z,5.90
2018-07-07T08:15:41.795Z,6.83
2018-07-07T08:18:11.192Z,6.57
2018-07-07T08:20:40.539Z,5.10
2018-07-07T08:23:09.944Z,4.70
2018-07-07T08:25:39.375Z,4.47
2018-07-07T08:28:08.796Z,4.33
2018-07-07T08:30:38.156Z,4.00
2018-07-07T08:33:09.156Z,3.87
2018-07-07T08:35:38.788Z,4.10
2018-07-07T08:38:13.503Z,3.77
2018-07-07T08:40:42.959Z,4.43
2018-07-07T08:43:16.537Z,3.60
2018-07-07T08:45:47.070Z,3.80
2018-07-07T08:48:16.911Z,4.43
2018-07-07T08:50:46.589Z,4.40
2018-07-07T08:53:15.929Z,4.00
2018-07-07T08:55:45.948Z,3.77
2018-07-07T08:58:15.314Z,4.00
2018-07-07T09:00:44.773Z,3.90
2018-07-07T09:03:14.218Z,3.53
2018-07-07T09:05:43.599Z,4.10
2018-07-07T09:08:13.261Z,3.40
2018-07-07T09:10:42.684Z,3.70
2018-07-07T09:13:12.048Z,4.00
2018-07-07T09:15:41.371Z,3.50
2018-07-07T09:18:10.743Z,4.40
2018-07-07T09:20:40.182Z,3.60
2018-07-07T09:23:10.314Z,3.60
2018-07-07T09:25:39.682Z,3.97
2018-07-07T09:28:09.099Z,3.00
2018-07-07T09:30:38.476Z,3.13
2018-07-07T09:33:07.817Z,3.37
2018-07-07T09:35:38.125Z,4.00
2018-07-07T09:38:07.532Z,3.67
2018-07-07T09:40:36.951Z,3.23
2018-07-07T09:43:06.889Z,2.97
2018-07-07T09:45:36.287Z,3.23
2018-07-07T09:48:05.714Z,3.33
2018-07-07T09:50:35.409Z,3.73
2018-07-07T09:53:04.822Z,3.47
2018-07-07T09:55:34.190Z,3.40
2018-07-07T09:58:03.581Z,2.97
2018-07-07T10:00:38.392Z,3.10
2018-07-07T10:03:07.843Z,3.00
2018-07-07T10:05:37.721Z,2.87
2018-07-07T10:08:07.146Z,3.30
2018-07-07T10:10:36.676Z,2.90
2018-07-07T10:13:06.857Z,3.00
2018-07-07T10:15:36.437Z,2.80
2018-07-07T10:18:06.539Z,2.70
2018-07-07T10:20:35.923Z,3.53
2018-07-07T10:23:05.645Z,3.00
2018-07-07T10:25:35.018Z,3.20
2018-07-07T10:28:04.487Z,3.70
2018-07-07T10:30:34.872Z,3.60
2018-07-07T10:33:04.473Z,2.80
2018-07-07T10:35:34.530Z,3.07
2018-07-07T10:38:03.986Z,3.13
2018-07-07T10:40:33.543Z,3.10
2018-07-07T10:43:03.033Z,4.03
2018-07-07T10:45:32.455Z,3.20
2018-07-07T10:48:02.968Z,3.03
2018-07-07T10:50:32.714Z,3.40
2018-07-07T10:53:02.191Z,3.10
2018-07-07T10:55:31.782Z,4.67
2018-07-07T10:58:01.308Z,3.27
2018-07-07T11:00:30.692Z,3.70
2018-07-07T11:03:00.639Z,3.90
2018-07-07T11:05:30.028Z,3.67
2018-07-07T11:08:00.534Z,4.07
2018-07-07T11:10:29.901Z,4.13
2018-07-07T11:12:59.438Z,3.50
2018-07-07T11:15:29.158Z,4.03
2018-07-07T11:17:58.592Z,3.50
2018-07-07T11:20:27.979Z,3.07
2018-07-07T11:22:58.324Z,4.30
2018-07-07T11:25:27.741Z,3.90
2018-07-07T11:27:57.138Z,3.83
2018-07-07T11:30:26.696Z,3.90
2018-07-07T11:32:56.111Z,4.57
2018-07-07T11:35:25.660Z,3.87
2018-07-07T11:37:55.975Z,3.90
2018-07-07T11:40:25.356Z,4.40
2018-07-07T11:42:56.503Z,3.93
2018-07-07T11:45:26.861Z,3.77
2018-07-07T11:47:56.264Z,3.60
2018-07-07T11:50:25.613Z,3.80
2018-07-07T11:52:55.051Z,3.47
2018-07-07T11:55:24.508Z,3.90
2018-07-07T11:57:53.957Z,3.30
2018-07-07T12:00:23.440Z,3.37
2018-07-07T12:02:52.896Z,4.00
2018-07-07T12:05:22.302Z,3.43
2018-07-07T12:08:00.714Z,3.37
2018-07-07T12:10:21.684Z,3.83
2018-07-07T12:12:51.096Z,4.47
2018-07-07T12:15:20.860Z,3.97
2018-07-07T12:17:50.237Z,3.80
2018-07-07T12:20:19.949Z,3.10
2018-07-07T12:22:49.375Z,3.30
2018-07-07T12:25:18.787Z,3.27
2018-07-07T12:27:48.188Z,3.30
2018-07-07T12:30:17.685Z,3.37
2018-07-07T12:32:47.106Z,3.50
2018-07-07T12:35:16.517Z,3.03
2018-07-07T12:37:46.076Z,3.30
2018-07-07T12:40:15.514Z,3.47
2018-07-07T12:42:44.908Z,3.30
2018-07-07T12:45:14.435Z,3.60
2018-07-07T12:47:43.812Z,3.00
2018-07-07T12:50:13.192Z,3.53
2018-07-07T12:52:43.165Z,3.00
2018-07-07T12:55:12.603Z,2.60
2018-07-07T12:57:43.392Z,3.70
2018-07-07T13:00:12.770Z,3.50
2018-07-07T13:02:42.149Z,3.23
2018-07-07T13:05:11.534Z,2.93
2018-07-07T13:07:40.924Z,3.17
2018-07-07T13:10:10.288Z,2.87
2018-07-07T13:12:40.124Z,2.77
2018-07-07T13:15:09.659Z,2.80
2018-07-07T13:17:39.196Z,2.60
2018-07-07T13:20:08.593Z,2.70
2018-07-07T13:22:38.034Z,2.57
2018-07-07T13:25:07.572Z,3.37
2018-07-07T13:27:36.933Z,3.97
2018-07-07T13:30:06.989Z,2.60
2018-07-07T13:32:36.404Z,3.27
2018-07-07T13:35:06.364Z,3.70
2018-07-07T13:37:35.844Z,3.30
2018-07-07T13:40:06.335Z,3.60
2018-07-07T13:42:36.320Z,3.73
2018-07-07T13:45:07.331Z,3.70
2018-07-07T13:47:36.708Z,3.33
2018-07-07T13:50:06.452Z,5.70
2018-07-07T13:52:35.812Z,3.77
2018-07-07T13:55:05.628Z,3.77
2018-07-07T13:57:35.040Z,8.20
2018-07-07T14:00:05.389Z,5.53
2018-07-07T14:02:35.413Z,5.63
2018-07-07T14:05:05.474Z,6.47
2018-07-07T14:07:34.870Z,16.63
2018-07-07T14:10:04.754Z,8.60
2018-07-07T14:12:34.262Z,45.47
2018-07-07T14:15:03.910Z,5.57
2018-07-07T14:17:33.464Z,7.30
2018-07-07T14:20:03.214Z,9.07
2018-07-07T14:22:32.594Z,6.53
2018-07-07T14:25:02.068Z,3.80
2018-07-07T14:27:31.515Z,6.93
2018-07-07T14:30:02.484Z,4.90
2018-07-07T14:32:31.899Z,3.87
2018-07-07T14:35:01.705Z,3.30
2018-07-07T14:37:32.145Z,3.60
2018-07-07T14:40:02.464Z,2.50
2018-07-07T14:42:50.286Z,11.37
2018-07-07T14:45:28.010Z,3.30
2018-07-07T14:47:58.712Z,2.90
2018-07-07T14:50:28.402Z,2.70
2018-07-07T14:52:57.856Z,2.63
2018-07-07T14:55:28.536Z,2.97
2018-07-07T14:57:57.978Z,3.77
2018-07-07T15:00:29.000Z,5.70
2018-07-07T15:02:58.776Z,5.70
2018-07-07T15:05:28.476Z,17.33
2018-07-07T15:07:58.240Z,4.03
2018-07-07T15:10:27.635Z,4.87
2018-07-07T15:12:57.114Z,4.50
2018-07-07T15:15:26.645Z,4.43
2018-07-07T15:17:56.450Z,4.90
2018-07-07T15:20:25.802Z,4.80
2018-07-07T15:22:55.211Z,3.90
2018-07-07T15:25:24.736Z,3.27
2018-07-07T15:27:54.133Z,3.60
2018-07-07T15:30:23.510Z,2.70
2018-07-07T15:32:52.913Z,2.83
2018-07-07T15:35:22.297Z,3.00
2018-07-07T15:37:51.646Z,2.83
2018-07-07T15:40:21.936Z,2.60
2018-07-07T15:42:51.352Z,2.67
2018-07-07T15:45:20.784Z,4.80
2018-07-07T15:47:50.197Z,2.20
2018-07-07T15:50:19.588Z,2.20
2018-07-07T15:52:49.301Z,2.37
2018-07-07T15:55:18.716Z,3.33
2018-07-07T15:57:48.235Z,3.93
2018-07-07T16:00:17.756Z,3.00
2018-07-07T16:02:47.186Z,3.00
2018-07-07T16:05:16.761Z,2.93
2018-07-07T16:07:46.650Z,2.33
2018-07-07T16:10:16.076Z,2.43
2018-07-07T16:12:45.901Z,3.50
2018-07-07T16:15:15.344Z,3.50
2018-07-07T16:17:44.953Z,3.13
2018-07-07T16:20:14.812Z,2.90
2018-07-07T16:22:44.292Z,2.30
2018-07-07T16:25:13.660Z,2.17
2018-07-07T16:27:43.099Z,1.93
2018-07-07T16:30:12.484Z,2.30
2018-07-07T16:32:42.256Z,2.43
2018-07-07T16:35:11.978Z,2.13
2018-07-07T16:37:41.521Z,2.20
2018-07-07T16:40:10.985Z,2.00
2018-07-07T16:42:41.439Z,1.77
2018-07-07T16:45:11.114Z,1.93
2018-07-07T16:47:40.812Z,1.97
2018-07-07T16:50:10.608Z,2.13
2018-07-07T16:52:40.037Z,1.90
2018-07-07T16:55:09.563Z,1.77
2018-07-07T16:57:39.044Z,2.47
2018-07-07T17:00:08.462Z,2.33
2018-07-07T17:02:37.857Z,1.77
2018-07-07T17:05:07.685Z,1.60
2018-07-07T17:07:38.135Z,2.10
2018-07-07T17:10:08.063Z,2.07
2018-07-07T17:12:37.470Z,2.63
2018-07-07T17:15:07.046Z,1.90
2018-07-07T17:17:36.436Z,2.10
2018-07-07T17:20:06.429Z,1.70
2018-07-07T17:22:35.968Z,1.70
2018-07-07T17:25:05.920Z,1.60
2018-07-07T17:27:35.484Z,1.70
2018-07-07T17:30:05.472Z,2.03
2018-07-07T17:32:34.931Z,1.60
2018-07-07T17:35:04.715Z,1.67
2018-07-07T17:37:34.323Z,2.13
2018-07-07T17:40:04.288Z,1.87
2018-07-07T17:42:33.740Z,1.70
2018-07-07T17:45:03.667Z,1.60
2018-07-07T17:47:33.358Z,1.63
2018-07-07T17:50:03.972Z,2.10
2018-07-07T17:52:34.808Z,1.80
2018-07-07T17:55:05.817Z,1.90
2018-07-07T17:57:35.671Z,2.00
2018-07-07T18:00:05.616Z,1.73
2018-07-07T18:02:35.055Z,1.90
2018-07-07T18:05:04.908Z,1.70
2018-07-07T18:07:34.404Z,1.70
2018-07-07T18:10:04.133Z,1.90
2018-07-07T18:12:33.524Z,1.97
2018-07-07T18:15:03.674Z,2.23
2018-07-07T18:17:33.351Z,1.70
2018-07-07T18:20:02.908Z,2.00
2018-07-07T18:22:32.297Z,2.20
2018-07-07T18:25:01.783Z,1.73
2018-07-07T18:27:31.240Z,1.37
2018-07-07T18:30:01.428Z,1.63
2018-07-07T18:32:30.823Z,1.77
2018-07-07T18:35:02.119Z,2.03
2018-07-07T18:37:32.304Z,1.60
2018-07-07T18:40:01.834Z,1.40
2018-07-07T18:42:31.758Z,1.53
2018-07-07T18:45:01.168Z,2.47
2018-07-07T18:47:30.556Z,1.60
2018-07-07T18:50:00.789Z,1.70
2018-07-07T18:52:30.719Z,1.37
2018-07-07T18:55:00.117Z,2.13
2018-07-07T18:57:30.164Z,2.20
2018-07-07T18:59:59.572Z,2.00
2018-07-07T19:02:29.165Z,2.13
2018-07-07T19:04:58.596Z,2.17
2018-07-07T19:07:28.149Z,2.00
2018-07-07T19:09:57.748Z,1.40
2018-07-07T19:12:27.117Z,2.10
2018-07-07T19:15:01.776Z,2.07
2018-07-07T19:17:31.181Z,1.50
2018-07-07T19:20:01.208Z,1.80
2018-07-07T19:22:36.756Z,1.83
2018-07-07T19:25:11.600Z,1.57
2018-07-07T19:27:40.960Z,1.57
2018-07-07T19:30:10.354Z,1.67
2018-07-07T19:32:44.895Z,1.57
2018-07-07T19:35:19.658Z,1.80
2018-07-07T19:37:49.325Z,1.83
2018-07-07T19:40:18.723Z,1.77
2018-07-07T19:42:49.826Z,1.90
2018-07-07T19:45:19.593Z,1.40
2018-07-07T19:47:49.011Z,2.37
2018-07-07T19:50:18.534Z,2.10
2018-07-07T19:52:47.928Z,1.93
2018-07-07T19:55:17.384Z,2.27
2018-07-07T19:57:46.745Z,2.03
2018-07-07T20:00:16.179Z,2.23
2018-07-07T20:02:45.588Z,2.87
2018-07-07T20:05:15.134Z,1.60
2018-07-07T20:07:44.516Z,2.60
2018-07-07T20:10:15.778Z,2.20
2018-07-07T20:12:45.180Z,2.20
2018-07-07T20:15:14.632Z,2.13
2018-07-07T20:17:55.148Z,2.23
2018-07-07T20:20:34.619Z,1.87
2018-07-07T20:23:12.694Z,2.10
2018-07-07T20:25:42.339Z,2.30
2018-07-07T20:28:16.828Z,1.83
2018-07-07T20:30:46.728Z,2.50
2018-07-07T20:33:16.252Z,2.10
2018-07-07T20:35:45.695Z,1.97
2018-07-07T20:38:15.281Z,2.40
2018-07-07T20:40:45.184Z,2.43
2018-07-07T20:43:14.819Z,2.13
2018-07-07T20:45:44.445Z,3.30
2018-07-07T20:48:14.029Z,2.37
2018-07-07T20:50:43.812Z,2.30
2018-07-07T20:53:14.309Z,2.47
2018-07-07T20:55:43.769Z,2.27
2018-07-07T20:58:13.173Z,2.37
2018-07-07T21:00:42.620Z,2.00
2018-07-07T21:03:12.150Z,3.27
2018-07-07T21:05:41.680Z,2.10
2018-07-07T21:08:11.628Z,2.10
2018-07-07T21:10:41.078Z,1.90
2018-07-07T21:13:10.568Z,2.70
2018-07-07T21:15:39.949Z,2.10
2018-07-07T21:18:09.348Z,2.37
2018-07-07T21:20:38.709Z,2.40
2018-07-07T21:23:08.173Z,2.20
2018-07-07T21:25:37.554Z,2.50
2018-07-07T21:28:06.985Z,2.10
2018-07-07T21:30:36.421Z,2.30
2018-07-07T21:33:05.884Z,2.60
2018-07-07T21:35:35.445Z,2.40
2018-07-07T21:38:05.417Z,2.80
2018-07-07T21:40:35.357Z,1.87
2018-07-07T21:43:05.262Z,3.03
2018-07-07T21:45:34.618Z,2.20
2018-07-07T21:48:04.014Z,2.37
2018-07-07T21:50:33.433Z,1.90
2018-07-07T21:53:02.976Z,2.03
2018-07-07T21:55:32.437Z,1.73
2018-07-07T21:58:07.206Z,1.90
2018-07-07T22:02:54.281Z,1.60
2018-07-07T22:05:29.093Z,1.60
2018-07-07T22:07:58.460Z,2.27
2018-07-07T22:10:27.853Z,2.00
2018-07-07T22:12:57.244Z,2.30
2018-07-07T22:15:27.536Z,1.67
2018-07-07T22:17:56.988Z,2.03
2018-07-07T22:20:32.632Z,1.80
2018-07-07T22:23:02.060Z,2.00
2018-07-07T22:25:31.584Z,2.10
2018-07-07T22:28:01.049Z,2.20
2018-07-07T22:30:30.453Z,1.53
2018-07-07T22:33:05.034Z,1.90
2018-07-07T22:35:39.656Z,1.97
2018-07-07T22:38:15.028Z,1.57
2018-07-07T22:40:44.476Z,1.67
2018-07-07T22:43:14.236Z,2.10
2018-07-07T22:45:43.611Z,2.10
2018-07-07T22:48:13.084Z,1.40
2018-07-07T22:50:42.528Z,1.90
2018-07-07T22:53:11.946Z,1.90
2018-07-07T22:55:41.321Z,1.60
2018-07-07T22:58:10.799Z,1.80
2018-07-07T23:00:40.225Z,1.53
2018-07-07T23:03:10.462Z,1.43
2018-07-07T23:05:39.852Z,1.57
2018-07-07T23:08:10.027Z,1.80
2018-07-07T23:10:39.858Z,1.70
2018-07-07T23:13:09.657Z,1.60
2018-07-07T23:15:39.023Z,1.80
2018-07-07T23:18:08.513Z,1.40
2018-07-07T23:20:37.957Z,1.97
2018-07-07T23:23:07.745Z,1.20
2018-07-07T23:25:37.184Z,1.80
2018-07-07T23:28:06.820Z,1.43
2018-07-07T23:30:36.554Z,1.33
2018-07-07T23:33:06.174Z,2.03
2018-07-07T23:35:35.608Z,1.37
2018-07-07T23:38:05.092Z,1.07
2018-07-07T23:40:34.515Z,1.43
2018-07-07T23:43:04.058Z,1.43
2018-07-07T23:45:35.312Z,1.70
2018-07-07T23:48:05.254Z,1.60
2018-07-07T23:50:34.748Z,1.73
2018-07-07T23:53:04.604Z,1.50
2018-07-07T23:55:34.042Z,1.23
2018-07-07T23:58:03.461Z,1.63
